Résultats

Foulee Vignerons Castelas : Solo. Édition 2017.

10 Km
19/11/2017 à 10:00:00 - Rochefort du Gard (30)
791 arrivant(e)s.


 
Les autres classements de cet évènement




Place▲ Temps Dossard Nom Prenom Categ #Categ Sexe #Sexe Club Vit Moy Diplôme Partager
1 00:35:22 714 MEJDOUB REDOUANE SEM 1 M 1 CSAMA 0.00
2 00:36:32 301 BERRAHO CHRISTOPHER SEM 2 M 2 ALES CEVENNES ATHLETISME 0.00
3 00:37:33 201 CELLE NICOLAS SEM 3 M 3 CLES GARDANNE TRIATHLON 0.00
4 00:38:46 536 GIANNITRAPANI LAURENT M1M 1 M 4 ST MATHIEU ATHLETIC 0.00
5 00:39:18 479 FELTZINGER JONATHAN SEM 4 M 5 VILLENEUVE TRIATHLON 0.00
6 00:39:55 499 FOURMENT CHRISTOPHE M1M 2 M 6 0.00
7 00:40:00 209 VIDEBIEN CYRILLE SEM 5 M 7 SPORT HEROES 0.00
8 00:40:21 731 MOLY DAVID SEM 6 M 8 ASVRTT 0.00
9 00:40:32 222 ABBOUSS MUSTAPHA M1M 3 M 9 CSAMA 0.00
10 00:40:58 239 ALLARY OLIVIER M1M 4 M 10 COSSLMA AVIGNON 0.00
11 00:41:00 647 LEBLANC CHRISTOPHER SEM 7 M 11 0.00
12 00:41:02 1019 FALICON-GENDREAU JEAN-LUC M1M 5 M 12 RSA 0.00
13 00:41:35 457 DURAND GREGORY M1M 6 M 13 CSAMA 0.00
14 00:41:43 261 AURAND FREDERIC M1M 7 M 14 CSAMA 0.00
15 00:42:07 935 TALLARON LUDOVIC M1M 8 M 15 0.00
16 00:42:09 308 BIVILLE PATRICE M2M 1 M 16 MISTRAL TRIATH CLUB 0.00
17 00:42:19 232 ALDEBERT VINCENT M1M 9 M 17 0.00
18 00:42:23 514 GALLOU JULIEN SEM 8 M 18 0.00
19 00:42:34 1001 CHARMASSON FLORENT M2M 2 M 19 BAGNOLS MARCOULE ATHLETISME 0.00
20 00:42:43 221 ABARCA CEDRIC M1M 10 M 20 RUNNING HEROES 0.00
21 00:42:49 881 ROUAI JEAN-PAUL M2M 3 M 21 FOULEE DES SORGUES 0.00
22 00:42:49 397 COURANT EMMANUEL M1M 11 M 22 FC BARBENTANE 0.00
23 00:42:54 562 GRANIER JEAN-LAURENT M1M 12 M 23 M. 0.00
24 00:42:56 894 RUE CEDRIC M1M 13 M 24 SAINT MATHIEU ATHLETIC 0.00
25 00:42:57 216 REGNIER PHILIPPE M2M 4 M 25 0.00
26 00:43:09 284 BEN-BACHIR FARID M1M 14 M 26 FC BARBENTANE 0.00
27 00:43:19 534 GIACOLETTO GILLES SEM 9 M 27 0.00
28 00:43:23 983 WIART KRISTOPHER ESM 1 M 28 0.00
29 00:43:31 290 BENOIT FLORIAN SEM 10 M 29 MISTRAL TRIATHLON CLUB 0.00
30 00:43:39 996 SALICE CHRISTOPHE M1M 15 M 30 0.00
31 00:43:46 235 ALEXANDRE BRUNO M1M 16 M 31 COSSLMA AVIGNON 0.00
32 00:44:11 649 LECA ERIC M2M 5 M 32 LA FOULEE PORT DE BOUCAINE 0.00
33 00:44:15 974 VILLAIN STEPHANE SEM 11 M 33 0.00
34 00:44:40 847 RAZIER JEAN-MARIE M2M 6 M 34 COURIR A VAUVERT 0.00
35 00:44:43 625 LABAUME ALEXANDRE M1M 17 M 35 SPORT HEROES 0.00
36 00:44:48 431 DELOUTE BENJAMIN SEM 12 M 36 AURELIEN LE BEAU GOSSE 0.00
37 00:44:50 703 MATON ERIC M2M 7 M 37 LES CENTAURES DE PERTUI 0.00
38 00:44:57 908 SANROMAN JOSE M1M 18 M 38 BAGNOLS MARCOULE ATHLETISME 0.00
39 00:44:57 998 BERTONCINO DAMIEN SEM 13 M 39 ASVA 0.00
40 00:44:57 804 PIALOT ANTOINE ESM 2 M 40 ASVA 0.00
41 00:44:58 285 BENBOUTA KASSIM JUM 1 M 41 CSAMA 0.00
42 00:45:05 970 VIANNAY PHILIPPE M2M 8 M 42 CAP BOMBONERA 0.00
43 00:45:12 922 SIMIAN MICHEL M3M 1 M 43 SLC MARTIGUES 0.00
44 00:45:12 533 GHALI JIMMY M1M 19 M 44 ARLES ATHLETISME 0.00
45 00:45:20 532 GERMAIN ALAIN M3M 2 M 45 COURIR A BEAUCAIRE 0.00
46 00:45:22 413 DAUTHERIBES JOCELYN M1M 20 M 46 COSSLMA AVIGNON 0.00
47 00:45:25 456 DUPONT JEREMY JUM 2 M 47 CSAMA 0.00
48 00:45:25 897 SAGNELONGE JEREMIE SEM 14 M 48 BMA 0.00
49 00:45:26 391 COMOY STEPHANE M1M 21 M 49 SANG POUR SANG 0.00
50 00:45:31 274 BARBIEUX ANTOINE SEM 15 M 50 UA CARPENTRAS 0.00
51 00:45:37 680 MALDONADO DANIEL SEM 16 M 51 0.00
52 00:45:38 552 GIUMELLI MAXIME ESM 3 M 52 SC CHATEAURENARD 0.00
53 00:45:38 484 FERRIERE-VERILLAUD ADRIEN SEM 17 M 53 0.00
54 00:45:44 994 FROC LAURENT M1M 22 M 54 ASVA 0.00
55 00:45:51 296 BERNARD ANTHONY M1M 23 M 55 SPORT HEROES 0.00
56 00:45:54 872 RIVIERE ALAIN M3M 3 M 56 0.00
57 00:45:57 212 FARANO SEBASTIEN M1M 24 M 57 COSSLMA AVIGNON 0.00
58 00:45:59 426 DELLA-RICA DAVID SEM 18 M 58 LA GAMBADE ROCHEFORTAISE 0.00
59 00:46:01 471 FARANO JEROME M2M 9 M 59 ESPRIT COURSE AVIGNON 0.00
60 00:46:04 636 LANG FRANCOIS M2M 10 M 60 LA GAMBADE ROCHEFORTAISE 0.00
61 00:46:10 287 BENGHOMARI ALI M2M 11 M 61 FOULEE PORT DE BOUCAINNE 0.00
62 00:46:12 980 VLAEMYCK HERVE M2M 12 M 62 VELO CLUB SALINDRES SECTION TRIATHLON 0.00
63 00:46:21 276 BARTHELOT PHILIPPE M2M 13 M 63 COSSLMA AVIGNON 0.00
64 00:46:22 378 CHEVILLARD MARC M2M 14 M 64 0.00
65 00:46:44 734 MORCILLO SAMUEL M1M 25 M 65 0.00
66 00:46:45 799 PERRIN GUILLAUME SEM 19 M 66 FOULEE DU CHASSELAS/TARAHUMARA 0.00
67 00:46:46 938 TAVARES STEVE M1M 26 M 67 RUNNING HEROES 0.00
68 00:46:48 1021 RIVIER CHRISTOPHE M1M 27 M 68 0.00
69 00:46:53 910 SARACCO GILLES-ROBERT M2M 15 M 69 ASVA 0.00
70 00:46:54 267 BALLESTER EMMANUEL SEM 20 M 70 TEAM FCO 0.00
71 00:47:11 989 OZIOL CLEMENT SEM 21 M 71 DECATHLON 0.00
72 00:47:12 822 PONSIN FABRICE SEM 22 M 72 POMPIERS LES ANGLES 0.00
73 00:47:18 573 GUILLUY BENJAMIN M1M 28 M 73 SIGNARGUES ULTRA TRAIL TEAM 0.00
74 00:47:22 830 POUDEVIGNE GUILLAUME SEM 23 M 74 0.00
75 00:47:23 687 MARCEL EMILE SEM 24 M 75 SPORT HEROES 0.00
76 00:47:25 62 INCONNU SEM 25 M 76 0.00
77 00:47:31 865 RICHARD PAUL SEM 26 M 77 SAUR 0.00
78 00:47:33 676 LUBESPERE JEAN-FRANCOIS M3M 4 M 78 DAWAPASCHER 0.00
79 00:47:35 244 ANCEY DOMINIQUE SEM 27 M 79 POMPIER LES ANGLES 0.00
80 00:47:36 393 COQUERELLE MICKAEL SEM 28 M 80 CHU 0.00
81 00:47:38 489 FLORES JEAN-PIERRE M3M 5 M 81 SARDINES TRIATHLON 0.00
82 00:47:41 810 PITRAS SEBASTIEN SEM 29 M 82 COLLEGE SAINT JEAN BAPTISTE DE LASALLE (NIMES) 0.00
83 00:47:43 882 ROUSSELET SOPHIE SEF 1 F 1 0.00
84 00:47:44 821 PONSERO STEPHANE M1M 29 M 83 TEAM FCO 0.00
85 00:47:49 856 REY FRANCIS M2M 16 M 84 TEAM DAWAPASHER/CSA BA115 0.00
86 00:47:53 576 GUSTINCIE DAVID M2M 17 M 85 0.00
87 00:47:57 807 PICQUART PATRICE M2M 18 M 86 ASVA 0.00
88 00:48:00 241 AMEDEO LIONEL SEM 30 M 87 0.00
89 00:48:02 668 LLORET BRICE SEM 31 M 88 CLUB ATHLETISME SPIRITPONTAIN 0.00
90 00:48:02 498 FOUREL COLIN SEM 32 M 89 0.00
91 00:48:06 347 CARRET FLORIAN M1M 30 M 90 RUNNING HEROES 0.00
92 00:48:12 934 TAILLANDIER STEPHAN SEM 33 M 91 VA LE PONTET 0.00
93 00:48:24 916 SENTENAC SEBASTIEN SEM 34 M 92 0.00
94 00:48:27 526 GEILLE THOMAS SEM 35 M 93 RUNNING HEROES 0.00
95 00:48:40 986 ZUANON SERGE M2M 19 M 94 0.00
96 00:48:43 359 CHAMBON CYRIL M1M 31 M 95 0.00
97 00:48:46 485 FERROUIL FRANCK M1M 32 M 96 SLC MARTIGUES 0.00
98 00:48:55 808 PIERI OLIVIER SEM 36 M 97 H2O RUNNING 0.00
99 00:49:12 325 BOURREL ALAIN M4M 1 M 98 ST MATHIEU ATHLETIC 0.00
100 00:49:13 1027 MILLON JEAN-PIERRE M2M 20 M 99 0.00